Historique des mesures à Cassis (13260), France
Quotidien Résumé Mars 28, 2017 Unités:  US    Métrique   Métrique/US
« Précédent (Jour)
Suivant (Jour) »
Quotidien Hebdomadaire Mensuel Annuel Période au choix
  Maximum: Minimum: Moyenne:
Température: 32 °F 52.3 °F 56.8 °F
Point de rosée: 32 °F 39.6 °F 44.4 °F
Humidité: Humidity % 44 % 61 %
Vitesse du vent: WindSpeedKMH mph 0.0 mph 6.1 mph
Rafales: WindSpeedGustKMH mph - -
Vent:- - SSE
Pression: 0 in 30.1 in -
Précipitations: 0 in    
Historical Graphs
 
 
Mesures pour : Mars 28, 2017
Heure Temperature Point de rosée Pression Vent Vitesse du vent Rafales Humidité Pluie (par heure) Conditions
32 °F 32 °F 0 in Calm     Humidity % 0 in SoftwareType W/m2
00:11 53.8 °F 45.3 °F 30.2 in NW 7.6 mph 11.9 mph 73 % 0 in open2300-1.11 W/m2
01:11 53.2 °F 45.9 °F 30.2 in Calm   5.0 mph 76 % 0 in open2300-1.11 W/m2
02:11 52.5 °F 45.1 °F 30.2 in North 2.6 mph 5.0 mph 76 % 0 in open2300-1.11 W/m2
03:11 52.3 °F 45.3 °F 30.2 in Calm   1.4 mph 77 % 0 in open2300-1.11 W/m2
04:11 52.3 °F 45.7 °F 30.2 in North 2.6 mph 3.5 mph 78 % 0 in open2300-1.11 W/m2
05:11 53.4 °F 46.4 °F 30.2 in North 2.9 mph 2.9 mph 77 % 0 in open2300-1.11 W/m2
06:11 54.1 °F 46.8 °F 30.2 in North 4.3 mph 4.3 mph 76 % 0 in open2300-1.11 W/m2
07:11 54.1 °F 45.7 °F 30.2 in Calm   1.1 mph 73 % 0 in open2300-1.11 W/m2
08:11 52.9 °F 45.1 °F 30.2 in North 1.4 mph 6.1 mph 75 % 0 in open2300-1.11 W/m2
09:11 55.6 °F 46.9 °F 30.2 in Calm   1.8 mph 73 % 0 in open2300-1.11 W/m2
10:11 57.9 °F 45.9 °F 30.2 in NNW 4.7 mph 8.2 mph 64 % 0 in open2300-1.11 W/m2
11:11 60.1 °F 45.1 °F 30.2 in North 5.5 mph 7.6 mph 58 % 0 in open2300-1.11 W/m2
12:11 62.8 °F 46.8 °F 30.2 in WNW 5.8 mph 15.8 mph 56 % 0 in open2300-1.11 W/m2
13:11 64 °F 46.6 °F 30.2 in NNW 18.3 mph 20.1 mph 53 % 0 in open2300-1.11 W/m2
14:11 64.8 °F 45.7 °F 30.2 in North 11.6 mph 19.8 mph 50 % 0 in open2300-1.11 W/m2
15:11 64 °F 46 °F 30.2 in North 13.0 mph 21.9 mph 52 % 0 in open2300-1.11 W/m2
16:11 64.2 °F 45.7 °F 30.1 in WNW 10.1 mph 20.9 mph 51 % 0 in open2300-1.11 W/m2
17:11 64 °F 43.9 °F 30.1 in Calm   21.6 mph 48 % 0 in open2300-1.11 W/m2
18:11 63.1 °F 40.6 °F 30.1 in WNW 16.9 mph 16.9 mph 44 % 0 in open2300-1.11 W/m2
19:11 61.2 °F 39.6 °F 30.1 in WNW 22.4 mph 22.4 mph 45 % 0 in open2300-1.11 W/m2
20:11 58.8 °F 42.6 °F 30.1 in WNW 13.4 mph 14.0 mph 55 % 0 in open2300-1.11 W/m2
21:11 58.1 °F 43.3 °F 30.2 in NW 8.2 mph 15.1 mph 58 % 0 in open2300-1.11 W/m2
22:11 56.8 °F 43.5 °F 30.2 in Calm     61 % 0 in open2300-1.11 W/m2
23:11 55.6 °F 43.2 °F 30.2 in North 2.1 mph 2.1 mph 63 % 0 in open2300-1.11 W/m2
Observations météo à CASSIS
WU-History script by Weather Underground - 1 mb